createdAt,value
2022-12-27T00:00:24.104Z,65.26
2022-12-27T00:05:26.256Z,65.89
2022-12-27T00:10:28.273Z,65.38
2022-12-27T00:15:30.388Z,65.43
2022-12-27T00:20:32.273Z,64.46
2022-12-27T00:25:34.845Z,64.15
2022-12-27T00:30:36.686Z,64.09
2022-12-27T00:35:39.410Z,63.00
2022-12-27T00:40:42.977Z,63.68
2022-12-27T00:45:45.719Z,63.28
2022-12-27T00:50:48.312Z,62.76
2022-12-27T00:55:50.211Z,62.95
2022-12-27T01:00:52.553Z,61.86
2022-12-27T01:05:54.678Z,60.57
2022-12-27T01:10:56.596Z,61.30
2022-12-27T01:15:58.599Z,61.41
2022-12-27T01:21:05.336Z,61.46
2022-12-27T01:26:11.493Z,61.70
2022-12-27T01:31:16.108Z,60.61
2022-12-27T01:36:20.871Z,60.83
2022-12-27T01:41:45.329Z,60.45
2022-12-27T01:46:47.354Z,59.57
2022-12-27T01:51:49.250Z,58.99
2022-12-27T01:56:52.216Z,59.38
2022-12-27T02:01:54.497Z,59.02
2022-12-27T02:06:57.791Z,58.95
2022-12-27T02:12:01.993Z,59.54
2022-12-27T02:17:10.913Z,58.95
2022-12-27T02:22:57.690Z,59.12
2022-12-27T02:28:20.199Z,58.67
2022-12-27T02:33:28.275Z,59.97
2022-12-27T02:38:37.802Z,59.72
2022-12-27T02:43:58.099Z,59.53
2022-12-27T02:49:18.427Z,58.77
2022-12-27T02:54:32.130Z,58.70
2022-12-27T03:00:11.520Z,58.48
2022-12-27T03:05:45.929Z,60.32
2022-12-27T03:11:17.143Z,60.44
2022-12-27T03:16:32.977Z,60.25
2022-12-27T03:22:06.349Z,58.81
2022-12-27T03:27:30.987Z,59.26
2022-12-27T03:33:08.164Z,59.47
2022-12-27T03:38:13.992Z,60.56
2022-12-27T03:43:16.521Z,60.55
2022-12-27T03:48:23.202Z,63.03
2022-12-27T03:53:34.310Z,65.50
2022-12-27T03:58:36.544Z,63.33
2022-12-27T04:03:38.471Z,75.16
2022-12-27T04:08:58.750Z,72.61
2022-12-27T04:14:19.317Z,81.30
2022-12-27T04:19:39.602Z,79.20
2022-12-27T04:24:59.768Z,83.52
2022-12-27T04:30:20.247Z,81.70
2022-12-27T04:35:22.182Z,79.03
2022-12-27T04:40:42.462Z,76.10
2022-12-27T04:46:03.015Z,74.80
2022-12-27T04:51:24.566Z,75.37
2022-12-27T04:56:26.475Z,74.81
2022-12-27T05:01:46.768Z,73.19
2022-12-27T05:06:48.733Z,72.57
2022-12-27T05:12:19.788Z,73.12
2022-12-27T05:17:22.469Z,72.80
2022-12-27T05:22:42.956Z,72.99
2022-12-27T05:27:44.851Z,71.71
2022-12-27T05:32:46.702Z,71.38
2022-12-27T05:37:54.748Z,71.87
2022-12-27T05:43:01.514Z,72.49
2022-12-27T05:48:03.613Z,72.61
2022-12-27T05:53:05.868Z,71.95
2022-12-27T05:58:07.995Z,72.74
2022-12-27T06:03:09.975Z,72.37
2022-12-27T06:08:12.247Z,72.25
2022-12-27T06:13:14.292Z,72.70
2022-12-27T06:18:16.294Z,71.33
2022-12-27T06:23:18.525Z,71.28
2022-12-27T06:28:20.382Z,72.03
2022-12-27T06:33:22.303Z,70.59
2022-12-27T06:38:24.314Z,70.13
2022-12-27T06:43:26.427Z,70.03
2022-12-27T06:48:29.061Z,69.91
2022-12-27T06:53:30.939Z,69.77
2022-12-27T06:58:32.921Z,69.11
2022-12-27T07:03:34.885Z,69.48
2022-12-27T07:08:37.530Z,69.13
2022-12-27T07:13:45.479Z,68.66
2022-12-27T07:18:49.969Z,69.15
2022-12-27T07:23:53.114Z,68.81
2022-12-27T07:28:56.445Z,69.33
2022-12-27T07:34:00.353Z,69.15
2022-12-27T07:39:02.363Z,68.21
2022-12-27T07:44:04.732Z,68.89
2022-12-27T07:49:15.617Z,68.66
2022-12-27T07:54:19.784Z,68.13
2022-12-27T07:59:22.418Z,67.67
2022-12-27T08:04:24.570Z,66.72
2022-12-27T08:09:31.059Z,67.55
2022-12-27T08:14:32.975Z,68.14
2022-12-27T08:19:35.089Z,67.03
2022-12-27T08:24:38.442Z,67.71
2022-12-27T08:29:40.374Z,67.11
2022-12-27T08:34:42.293Z,65.89
2022-12-27T08:39:44.159Z,65.14
2022-12-27T08:44:46.080Z,62.81
2022-12-27T08:49:47.905Z,62.35
2022-12-27T08:54:49.983Z,62.86
2022-12-27T08:59:51.895Z,62.70
2022-12-27T09:04:53.815Z,61.16
2022-12-27T09:09:55.765Z,61.23
2022-12-27T09:14:59.563Z,57.22
2022-12-27T09:20:01.876Z,53.16
2022-12-27T09:25:05.201Z,55.29
2022-12-27T09:30:08.500Z,53.38
2022-12-27T09:35:10.423Z,49.08
2022-12-27T09:40:17.651Z,49.34
2022-12-27T09:45:22.359Z,51.10
2022-12-27T09:50:38.822Z,47.93
2022-12-27T09:55:45.953Z,49.44
2022-12-27T10:00:50.623Z,44.61
2022-12-27T10:06:04.783Z,46.17
2022-12-27T10:11:37.006Z,46.93
2022-12-27T10:16:50.627Z,44.71
2022-12-27T10:22:01.942Z,40.72
2022-12-27T10:27:14.366Z,44.11
2022-12-27T10:32:16.515Z,41.29
2022-12-27T10:37:18.586Z,38.65
2022-12-27T10:42:38.488Z,34.15
2022-12-27T10:47:40.821Z,36.38
2022-12-27T10:52:44.026Z,32.65
2022-12-27T10:57:45.986Z,34.73
2022-12-27T11:02:58.991Z,32.43
2022-12-27T11:08:20.924Z,31.79
2022-12-27T11:13:22.822Z,31.96
2022-12-27T11:18:24.686Z,28.68
2022-12-27T11:23:35.798Z,26.50
2022-12-27T11:28:44.252Z,29.73
2022-12-27T11:33:52.157Z,26.86
2022-12-27T11:38:54.091Z,29.22
2022-12-27T11:43:59.024Z,30.00
2022-12-27T11:49:02.814Z,29.96
2022-12-27T11:54:29.911Z,31.41
2022-12-27T12:00:02.899Z,28.36
2022-12-27T12:05:25.330Z,28.46
2022-12-27T12:10:33.136Z,26.78
2022-12-27T12:16:05.391Z,22.72
2022-12-27T12:21:32.095Z,21.44
2022-12-27T12:26:58.597Z,20.73
2022-12-27T12:32:00.575Z,20.75
2022-12-27T12:37:21.986Z,18.38
2022-12-27T12:43:04.404Z,19.28
2022-12-27T12:48:24.624Z,23.67
2022-12-27T12:53:52.361Z,22.88
2022-12-27T12:59:31.461Z,18.65
2022-12-27T13:04:41.869Z,17.26
2022-12-27T13:10:22.738Z,16.54
2022-12-27T13:15:55.446Z,16.07
2022-12-27T13:21:06.632Z,16.71
2022-12-27T13:26:20.564Z,14.26
2022-12-27T13:31:25.619Z,15.63
2022-12-27T13:37:03.031Z,16.49
2022-12-27T13:42:33.268Z,16.55
2022-12-27T13:48:02.993Z,16.86
2022-12-27T13:53:38.860Z,16.10
2022-12-27T13:58:59.277Z,18.15
2022-12-27T14:04:10.456Z,16.94
2022-12-27T14:09:15.548Z,18.07
2022-12-27T14:14:19.086Z,17.32
2022-12-27T14:20:02.490Z,17.09
2022-12-27T14:25:38.049Z,19.59
2022-12-27T14:30:42.640Z,18.25
2022-12-27T14:36:15.474Z,17.70
2022-12-27T14:41:54.989Z,16.79
2022-12-27T14:47:13.450Z,18.64
2022-12-27T14:52:27.372Z,19.34
2022-12-27T14:57:55.480Z,21.05
2022-12-27T15:03:16.131Z,22.11
2022-12-27T15:08:26.974Z,21.14
2022-12-27T15:14:02.970Z,21.19
2022-12-27T15:19:26.751Z,24.05
2022-12-27T15:24:41.486Z,25.78
2022-12-27T15:30:02.365Z,35.68
2022-12-27T15:35:23.984Z,34.58
2022-12-27T15:40:34.955Z,33.63
2022-12-27T15:45:55.073Z,33.87
2022-12-27T15:51:36.736Z,32.66
2022-12-27T15:57:13.702Z,32.97
2022-12-27T16:02:44.740Z,31.92
2022-12-27T16:07:51.094Z,31.52
2022-12-27T16:13:09.591Z,31.50
2022-12-27T16:18:23.358Z,31.71
2022-12-27T16:23:32.975Z,29.88
2022-12-27T16:28:37.138Z,30.29
2022-12-27T16:33:41.289Z,29.34
2022-12-27T16:38:52.084Z,30.77
2022-12-27T16:44:00.422Z,29.81
2022-12-27T16:49:23.827Z,29.75
2022-12-27T16:54:46.373Z,29.43
2022-12-27T16:59:59.834Z,29.19
2022-12-27T17:05:01.990Z,30.13
2022-12-27T17:10:25.246Z,30.35
2022-12-27T17:15:27.698Z,29.01
2022-12-27T17:20:31.533Z,28.26
2022-12-27T17:25:45.876Z,28.32
2022-12-27T17:31:20.077Z,29.62
2022-12-27T17:36:31.102Z,41.11
2022-12-27T17:42:34.316Z,39.69
2022-12-27T17:48:23.042Z,40.20
2022-12-27T17:53:43.905Z,40.57
2022-12-27T17:58:45.849Z,40.80
2022-12-27T18:03:48.418Z,40.16
2022-12-27T18:08:50.720Z,40.53
2022-12-27T18:13:56.662Z,40.25
2022-12-27T18:19:01.710Z,38.19
2022-12-27T18:24:23.404Z,38.49
2022-12-27T18:29:25.731Z,38.54
2022-12-27T18:34:33.213Z,37.71
2022-12-27T18:39:39.930Z,37.59
2022-12-27T18:44:49.188Z,37.45
2022-12-27T18:50:00.194Z,37.33
2022-12-27T18:55:26.657Z,35.53
2022-12-27T19:00:29.325Z,37.40
2022-12-27T19:05:31.447Z,35.07
2022-12-27T19:10:33.805Z,36.43
2022-12-27T19:15:44.926Z,33.81
2022-12-27T19:20:55.943Z,35.38
2022-12-27T19:26:17.777Z,32.70
2022-12-27T19:31:22.136Z,35.29
2022-12-27T19:36:28.860Z,32.19
2022-12-27T19:41:31.767Z,30.42
2022-12-27T19:46:33.753Z,30.72
2022-12-27T19:51:37.255Z,28.09
2022-12-27T19:56:39.181Z,29.90
2022-12-27T20:01:42.607Z,31.73
2022-12-27T20:06:48.983Z,29.96
2022-12-27T20:11:53.654Z,29.11
2022-12-27T20:16:58.506Z,26.80
2022-12-27T20:22:00.758Z,26.42
2022-12-27T20:27:03.011Z,26.28
2022-12-27T20:32:06.870Z,25.50
2022-12-27T20:37:08.993Z,26.24
2022-12-27T20:42:12.170Z,25.60
2022-12-27T20:47:14.103Z,26.63
2022-12-27T20:52:16.637Z,26.33
2022-12-27T20:57:18.535Z,26.63
2022-12-27T21:02:20.616Z,27.04
2022-12-27T21:07:22.632Z,26.62
2022-12-27T21:12:24.748Z,27.07
2022-12-27T21:17:27.136Z,26.14
2022-12-27T21:22:29.000Z,25.68
2022-12-27T21:27:30.856Z,24.25
2022-12-27T21:32:32.875Z,23.26
2022-12-27T21:37:35.035Z,21.99
2022-12-27T21:42:36.913Z,21.36
2022-12-27T21:47:38.860Z,21.79
2022-12-27T21:52:40.891Z,20.66
2022-12-27T21:57:42.744Z,20.44
2022-12-27T22:02:44.756Z,19.41
2022-12-27T22:07:46.766Z,19.28
2022-12-27T22:12:48.751Z,18.96
2022-12-27T22:17:50.632Z,18.84
2022-12-27T22:22:52.484Z,18.98
2022-12-27T22:27:54.389Z,19.41
2022-12-27T22:32:56.291Z,20.66
2022-12-27T22:37:58.439Z,18.57
2022-12-27T22:43:00.295Z,19.70
2022-12-27T22:48:02.222Z,19.38
2022-12-27T22:53:04.249Z,19.40
2022-12-27T22:58:06.146Z,19.31
2022-12-27T23:03:08.045Z,20.27
2022-12-27T23:08:09.910Z,19.57
2022-12-27T23:13:11.791Z,19.98
2022-12-27T23:18:13.678Z,20.56
2022-12-27T23:23:15.552Z,21.07
2022-12-27T23:28:17.442Z,21.16
2022-12-27T23:33:19.482Z,21.90
2022-12-27T23:38:21.397Z,22.27
2022-12-27T23:43:51.100Z,22.75
2022-12-27T23:48:45.806Z,23.30
2022-12-27T23:53:47.946Z,24.16
2022-12-27T23:58:52.080Z,25.31
